Time;durP1;ratioP1;P1;durP2;ratioP2;P2;SDS_P1;SDS_P2;PMS_P1;PMS_P2;Temp;Humidity;BMP_temperature;BMP_pressure;BME280_temperature;BME280_humidity;BME280_pressure;Samples;Min_cycle;Max_cycle;Signal;HPM_P1;HPM_P2
2022/03/30 00:00:20;;;;;;;17.10;10.87;;;;;;;;;;4933994;28;20442;-51
2022/03/30 00:02:46;;;;;;;14.60;10.40;;;;;;;;;;4941315;28;20498;-50
2022/03/30 00:05:13;;;;;;;18.87;11.30;;;;;;;;;;4933502;28;20945;-50
2022/03/30 00:07:39;;;;;;;19.10;12.43;;;;;;;;;;4943439;28;20439;-51
2022/03/30 00:10:07;;;;;;;19.23;11.23;;;;;;;;;;4939858;28;20446;-50
2022/03/30 00:12:34;;;;;;;17.60;10.97;;;;;;;;;;4942602;28;20446;-51
2022/03/30 00:15:01;;;;;;;21.43;10.60;;;;;;;;;;4943209;28;21132;-51
2022/03/30 00:17:27;;;;;;;20.07;11.40;;;;;;;;;;4933691;28;20443;-51
2022/03/30 00:19:53;;;;;;;20.63;11.70;;;;;;;;;;4941683;28;20493;-50
2022/03/30 00:22:21;;;;;;;18.67;11.43;;;;;;;;;;4938654;28;20702;-51
2022/03/30 00:24:47;;;;;;;19.87;11.30;;;;;;;;;;4953946;28;20187;-51
2022/03/30 00:27:13;;;;;;;19.53;10.43;;;;;;;;;;4944857;28;20439;-51
2022/03/30 00:29:40;;;;;;;14.50;9.70;;;;;;;;;;4940790;28;20436;-51
2022/03/30 00:32:06;;;;;;;21.47;10.80;;;;;;;;;;4938168;28;20443;-50
2022/03/30 00:34:32;;;;;;;18.53;11.60;;;;;;;;;;4940057;28;20938;-51
2022/03/30 00:36:59;;;;;;;18.80;11.40;;;;;;;;;;4941758;28;20451;-51
2022/03/30 00:39:25;;;;;;;24.30;13.03;;;;;;;;;;4955801;28;20454;-50
2022/03/30 00:41:52;;;;;;;20.83;9.40;;;;;;;;;;4943214;28;20474;-50
2022/03/30 00:44:18;;;;;;;18.40;11.67;;;;;;;;;;4939412;28;21146;-50
2022/03/30 00:46:44;;;;;;;17.80;11.30;;;;;;;;;;4945460;28;21362;-50
2022/03/30 00:49:10;;;;;;;21.00;11.10;;;;;;;;;;4936492;28;20559;-48
2022/03/30 00:51:36;;;;;;;16.50;10.80;;;;;;;;;;4945695;28;20426;-51
2022/03/30 00:54:02;;;;;;;16.30;11.57;;;;;;;;;;4940240;28;20455;-51
2022/03/30 00:56:28;;;;;;;14.73;10.33;;;;;;;;;;4942935;28;20195;-51
2022/03/30 00:58:54;;;;;;;16.43;10.77;;;;;;;;;;4938160;28;20930;-51
2022/03/30 01:01:21;;;;;;;19.33;12.10;;;;;;;;;;4936199;28;20872;-50
2022/03/30 01:03:47;;;;;;;22.00;10.33;;;;;;;;;;4939654;28;20446;-50
2022/03/30 01:06:13;;;;;;;16.17;10.13;;;;;;;;;;4944581;28;20443;-51
2022/03/30 01:08:39;;;;;;;22.83;11.70;;;;;;;;;;4954184;28;20439;-50
2022/03/30 01:11:12;;;;;;;18.97;10.97;;;;;;;;;;4943717;28;21019;-50
2022/03/30 01:13:39;;;;;;;25.37;10.63;;;;;;;;;;4943340;28;20571;-50
2022/03/30 01:16:05;;;;;;;16.17;10.83;;;;;;;;;;4940769;28;21060;-50
2022/03/30 01:18:39;;;;;;;16.63;10.53;;;;;;;;;;4939002;28;20903;-50
2022/03/30 01:21:18;;;;;;;20.20;11.60;;;;;;;;;;4942440;28;20862;-51
2022/03/30 01:23:46;;;;;;;19.80;10.60;;;;;;;;;;4945337;28;20482;-50
2022/03/30 01:26:12;;;;;;;20.53;10.70;;;;;;;;;;4938763;28;20511;-51
2022/03/30 01:28:38;;;;;;;16.27;11.30;;;;;;;;;;4944569;28;20556;-50
2022/03/30 01:33:58;;;;;;;15.50;9.63;;;;;;;;;;4942578;28;20473;-49
2022/03/30 01:36:25;;;;;;;15.40;10.27;;;;;;;;;;4942445;28;20487;-49
2022/03/30 01:38:51;;;;;;;19.70;11.10;;;;;;;;;;4946769;28;20435;-50
2022/03/30 01:41:19;;;;;;;16.53;11.07;;;;;;;;;;4941826;28;20601;-51
2022/03/30 01:43:48;;;;;;;20.33;11.97;;;;;;;;;;4932128;28;20521;-51
2022/03/30 01:46:16;;;;;;;14.33;10.97;;;;;;;;;;4942230;28;20439;-50
2022/03/30 01:48:43;;;;;;;14.53;11.17;;;;;;;;;;4946410;28;20447;-50
2022/03/30 01:51:15;;;;;;;14.73;10.40;;;;;;;;;;4946108;28;20555;-50
2022/03/30 01:53:42;;;;;;;24.77;11.40;;;;;;;;;;4946198;28;20442;-49
2022/03/30 01:56:08;;;;;;;17.20;12.30;;;;;;;;;;4940772;28;20475;-51
2022/03/30 01:58:34;;;;;;;17.37;10.70;;;;;;;;;;4960931;28;20777;-50
2022/03/30 02:01:03;;;;;;;18.50;10.80;;;;;;;;;;4940392;28;20543;-52
2022/03/30 02:03:29;;;;;;;19.90;11.20;;;;;;;;;;4944078;28;20580;-50
2022/03/30 02:05:55;;;;;;;18.90;11.93;;;;;;;;;;4944203;28;20439;-50
2022/03/30 02:08:22;;;;;;;21.67;10.63;;;;;;;;;;4945024;28;20450;-50
2022/03/30 02:10:49;;;;;;;24.73;11.93;;;;;;;;;;4975768;28;20496;-50
2022/03/30 02:13:15;;;;;;;19.37;10.80;;;;;;;;;;4947241;28;21155;-50
2022/03/30 02:15:41;;;;;;;20.13;12.13;;;;;;;;;;4944338;28;20466;-50
2022/03/30 02:18:09;;;;;;;17.40;11.07;;;;;;;;;;4948756;28;20517;-50
2022/03/30 02:20:36;;;;;;;15.73;10.47;;;;;;;;;;4930725;28;20182;-50
2022/03/30 02:23:03;;;;;;;18.07;11.43;;;;;;;;;;4937896;28;20487;-49
2022/03/30 02:25:29;;;;;;;16.20;11.00;;;;;;;;;;4945422;28;20443;-50
2022/03/30 02:27:55;;;;;;;17.83;10.70;;;;;;;;;;4943467;28;20450;-50
2022/03/30 02:30:21;;;;;;;18.07;12.07;;;;;;;;;;4940783;28;20164;-51
2022/03/30 02:32:47;;;;;;;23.50;12.00;;;;;;;;;;4947704;28;20490;-51
2022/03/30 02:35:14;;;;;;;18.90;12.20;;;;;;;;;;4946484;28;20860;-51
2022/03/30 02:37:40;;;;;;;23.70;12.20;;;;;;;;;;4940906;28;20479;-50
2022/03/30 02:40:07;;;;;;;14.53;10.83;;;;;;;;;;4949073;28;20450;-50
2022/03/30 02:42:33;;;;;;;20.47;11.23;;;;;;;;;;4947325;28;20482;-50
2022/03/30 02:44:59;;;;;;;13.97;10.00;;;;;;;;;;4947196;28;21426;-50
2022/03/30 02:50:09;;;;;;;17.53;10.20;;;;;;;;;;4942790;28;20438;-50
2022/03/30 02:52:38;;;;;;;17.93;10.80;;;;;;;;;;4939254;28;20438;-51
2022/03/30 02:55:04;;;;;;;17.80;10.33;;;;;;;;;;4942453;28;20443;-50
2022/03/30 02:57:33;;;;;;;14.67;11.53;;;;;;;;;;4944451;28;20863;-51
2022/03/30 03:00:00;;;;;;;17.33;11.67;;;;;;;;;;4956892;28;20447;-52
2022/03/30 03:02:30;;;;;;;22.83;13.03;;;;;;;;;;4939964;28;20489;-51
2022/03/30 03:04:57;;;;;;;24.93;14.70;;;;;;;;;;4941907;28;20764;-50
2022/03/30 03:07:27;;;;;;;19.43;12.40;;;;;;;;;;4944518;28;20455;-50
2022/03/30 03:09:53;;;;;;;14.87;11.53;;;;;;;;;;4955410;28;20448;-50
2022/03/30 03:12:19;;;;;;;16.10;11.97;;;;;;;;;;4944090;28;20434;-51
2022/03/30 03:14:47;;;;;;;18.17;12.17;;;;;;;;;;4945623;28;20447;-50
2022/03/30 03:17:13;;;;;;;17.03;11.50;;;;;;;;;;4977822;28;20438;-50
2022/03/30 03:19:41;;;;;;;24.67;13.57;;;;;;;;;;4939488;28;20439;-50
2022/03/30 03:22:20;;;;;;;25.00;13.73;;;;;;;;;;4945497;28;20534;-50
2022/03/30 03:24:48;;;;;;;19.57;12.83;;;;;;;;;;4941443;28;20462;-51
2022/03/30 03:27:14;;;;;;;13.60;9.70;;;;;;;;;;4943927;28;20539;-51
2022/03/30 03:29:44;;;;;;;22.93;11.47;;;;;;;;;;4928044;29;20499;-50
2022/03/30 03:32:10;;;;;;;27.10;12.60;;;;;;;;;;4940387;28;20714;-51
2022/03/30 03:34:37;;;;;;;16.77;12.03;;;;;;;;;;4944466;28;20454;-49
2022/03/30 03:37:05;;;;;;;28.37;14.00;;;;;;;;;;4940743;28;20466;-50
2022/03/30 03:39:31;;;;;;;21.80;12.00;;;;;;;;;;4953118;28;20530;-50
2022/03/30 03:41:57;;;;;;;20.77;12.97;;;;;;;;;;4943062;28;20846;-50
2022/03/30 03:44:24;;;;;;;22.90;13.27;;;;;;;;;;4944212;28;21009;-50
2022/03/30 03:46:54;;;;;;;20.60;13.40;;;;;;;;;;4942387;28;20435;-50
2022/03/30 03:49:22;;;;;;;22.97;14.37;;;;;;;;;;4943174;28;21134;-50
2022/03/30 03:51:48;;;;;;;19.50;12.10;;;;;;;;;;4935839;28;20879;-51
2022/03/30 03:54:14;;;;;;;16.83;11.87;;;;;;;;;;4936680;28;20443;-51
2022/03/30 03:56:45;;;;;;;17.87;13.17;;;;;;;;;;4937935;28;20635;-50
2022/03/30 03:59:12;;;;;;;22.33;11.80;;;;;;;;;;4942184;28;20431;-50
2022/03/30 04:01:38;;;;;;;23.03;13.80;;;;;;;;;;4939006;28;20446;-50
2022/03/30 04:04:06;;;;;;;19.77;13.40;;;;;;;;;;4941436;28;20584;-56
2022/03/30 04:06:32;;;;;;;14.73;11.67;;;;;;;;;;4945713;28;20456;-51
2022/03/30 04:08:58;;;;;;;19.50;11.50;;;;;;;;;;4941515;28;20762;-50
2022/03/30 04:11:24;;;;;;;21.13;12.07;;;;;;;;;;4942091;28;20432;-50
2022/03/30 04:13:50;;;;;;;18.83;10.97;;;;;;;;;;4942884;28;20450;-50
2022/03/30 04:16:16;;;;;;;22.03;12.00;;;;;;;;;;4943084;28;20446;-50
2022/03/30 04:18:45;;;;;;;19.97;11.27;;;;;;;;;;4944102;28;20442;-51
2022/03/30 04:21:14;;;;;;;20.00;11.87;;;;;;;;;;4943652;28;20479;-50
2022/03/30 04:23:40;;;;;;;20.03;11.20;;;;;;;;;;4930967;28;20479;-51
2022/03/30 04:26:12;;;;;;;21.43;11.07;;;;;;;;;;4940275;28;20446;-51
2022/03/30 04:28:41;;;;;;;23.20;11.37;;;;;;;;;;4937454;28;21534;-50
2022/03/30 04:31:21;;;;;;;20.83;10.70;;;;;;;;;;4940297;28;20443;-51
2022/03/30 04:34:00;;;;;;;25.50;13.07;;;;;;;;;;4934584;28;20450;-51
2022/03/30 04:36:28;;;;;;;18.50;11.10;;;;;;;;;;4941032;28;20494;-50
2022/03/30 04:38:55;;;;;;;16.60;10.57;;;;;;;;;;4932388;28;20464;-53
2022/03/30 04:41:23;;;;;;;20.10;11.43;;;;;;;;;;4927188;28;20581;-51
2022/03/30 04:43:55;;;;;;;24.13;11.50;;;;;;;;;;4930149;28;20999;-49
2022/03/30 04:46:22;;;;;;;20.57;10.70;;;;;;;;;;4934653;28;20442;-50
2022/03/30 04:48:49;;;;;;;22.83;11.30;;;;;;;;;;4932513;28;20451;-50
2022/03/30 04:51:15;;;;;;;16.60;9.97;;;;;;;;;;4933619;28;20620;-49
2022/03/30 04:53:44;;;;;;;18.63;10.30;;;;;;;;;;4933386;28;20940;-50
2022/03/30 04:56:11;;;;;;;21.37;12.03;;;;;;;;;;4928210;28;20522;-50
2022/03/30 04:58:37;;;;;;;21.33;11.13;;;;;;;;;;4938503;28;20973;-49
2022/03/30 05:01:03;;;;;;;17.13;10.70;;;;;;;;;;4933550;28;20518;-50
2022/03/30 05:03:36;;;;;;;16.53;10.77;;;;;;;;;;4931195;28;20587;-51
2022/03/30 05:06:03;;;;;;;20.07;10.47;;;;;;;;;;4936600;28;20437;-50
2022/03/30 05:08:29;;;;;;;19.33;9.60;;;;;;;;;;4936187;28;20457;-51
2022/03/30 05:10:56;;;;;;;15.83;9.30;;;;;;;;;;4938740;28;20431;-50
2022/03/30 05:13:45;;;;;;;19.77;11.57;;;;;;;;;;4939628;28;20435;-51
2022/03/30 05:16:22;;;;;;;16.00;9.80;;;;;;;;;;4934315;28;20439;-51
2022/03/30 05:18:49;;;;;;;29.97;11.17;;;;;;;;;;4946354;28;20474;-50
2022/03/30 05:21:16;;;;;;;21.30;13.33;;;;;;;;;;4943499;28;20870;-51
2022/03/30 05:23:42;;;;;;;21.40;12.17;;;;;;;;;;4944257;28;20479;-50
2022/03/30 05:26:08;;;;;;;24.37;11.53;;;;;;;;;;4946785;28;20530;-51
2022/03/30 05:28:38;;;;;;;21.63;12.07;;;;;;;;;;4938431;28;21028;-52
2022/03/30 05:31:09;;;;;;;16.63;10.40;;;;;;;;;;4936493;28;20439;-51
2022/03/30 05:33:49;;;;;;;23.33;16.00;;;;;;;;;;4940032;28;20454;-51
2022/03/30 05:36:18;;;;;;;22.60;11.67;;;;;;;;;;4948552;28;20457;-51
2022/03/30 05:38:45;;;;;;;17.77;12.00;;;;;;;;;;4946044;28;20450;-50
2022/03/30 05:41:13;;;;;;;23.77;11.27;;;;;;;;;;4936625;28;20530;-50
2022/03/30 05:43:39;;;;;;;24.93;12.63;;;;;;;;;;4939685;28;20818;-50
2022/03/30 05:46:05;;;;;;;19.67;12.07;;;;;;;;;;4940729;28;20927;-52
2022/03/30 05:48:31;;;;;;;23.10;12.47;;;;;;;;;;4943928;28;20780;-50
2022/03/30 05:50:57;;;;;;;25.00;12.23;;;;;;;;;;4939077;28;20838;-51
2022/03/30 05:53:35;;;;;;;20.63;12.67;;;;;;;;;;4937952;28;20447;-50
2022/03/30 05:56:02;;;;;;;20.13;10.80;;;;;;;;;;4942442;28;20977;-51
2022/03/30 05:58:29;;;;;;;27.57;11.80;;;;;;;;;;4945150;28;20451;-51
2022/03/30 06:00:54;;;;;;;15.97;11.87;;;;;;;;;;4943259;28;20450;-51
2022/03/30 06:03:21;;;;;;;20.30;10.20;;;;;;;;;;4941478;28;21321;-52
2022/03/30 06:05:51;;;;;;;18.87;11.57;;;;;;;;;;4943813;28;20439;-52
2022/03/30 06:08:19;;;;;;;23.50;10.00;;;;;;;;;;4960521;28;21000;-52
2022/03/30 06:10:45;;;;;;;21.30;12.77;;;;;;;;;;4941733;28;20559;-54
2022/03/30 06:13:11;;;;;;;24.60;11.30;;;;;;;;;;4943121;28;20474;-50
2022/03/30 06:15:38;;;;;;;19.13;11.53;;;;;;;;;;4946765;28;20467;-52
2022/03/30 06:18:10;;;;;;;17.73;11.83;;;;;;;;;;4945735;28;20517;-52
2022/03/30 06:20:36;;;;;;;21.67;11.20;;;;;;;;;;4960150;28;20448;-53
2022/03/30 06:23:02;;;;;;;20.63;10.10;;;;;;;;;;4948786;28;20482;-51
2022/03/30 06:25:28;;;;;;;22.70;10.50;;;;;;;;;;4945066;28;20444;-52
2022/03/30 06:27:54;;;;;;;17.67;10.40;;;;;;;;;;4961177;28;20435;-52
2022/03/30 06:30:21;;;;;;;17.47;11.33;;;;;;;;;;4947191;28;20531;-52
2022/03/30 06:32:49;;;;;;;21.97;9.67;;;;;;;;;;4949000;28;20446;-51
2022/03/30 06:35:16;;;;;;;20.83;10.90;;;;;;;;;;4943382;28;20486;-50
2022/03/30 06:37:42;;;;;;;21.33;10.97;;;;;;;;;;4947088;28;20451;-49
2022/03/30 06:40:09;;;;;;;21.60;12.50;;;;;;;;;;4944189;28;20471;-52
2022/03/30 06:42:37;;;;;;;21.67;10.50;;;;;;;;;;4940039;28;20526;-51
2022/03/30 06:45:03;;;;;;;25.73;11.50;;;;;;;;;;4945668;28;20436;-48
2022/03/30 06:47:29;;;;;;;24.63;13.93;;;;;;;;;;4946197;28;20447;-50
2022/03/30 06:49:55;;;;;;;19.83;11.13;;;;;;;;;;4944803;28;20883;-50
2022/03/30 06:52:21;;;;;;;22.63;12.57;;;;;;;;;;4947601;28;20435;-51
2022/03/30 06:54:47;;;;;;;20.43;12.30;;;;;;;;;;4947736;28;20427;-51
2022/03/30 06:57:13;;;;;;;19.83;11.87;;;;;;;;;;4946741;28;21092;-50
2022/03/30 06:59:39;;;;;;;25.23;12.97;;;;;;;;;;4948838;28;20801;-50
2022/03/30 07:02:05;;;;;;;25.73;14.20;;;;;;;;;;4941725;28;20537;-51
2022/03/30 07:04:31;;;;;;;26.30;12.00;;;;;;;;;;4940260;28;20553;-51
2022/03/30 07:12:26;;;;;;;21.33;13.00;;;;;;;;;;4942528;28;20442;-50
2022/03/30 07:14:52;;;;;;;19.63;11.37;;;;;;;;;;4941778;28;20428;-50
2022/03/30 07:17:18;;;;;;;21.10;10.77;;;;;;;;;;4944140;28;20443;-50
2022/03/30 07:19:44;;;;;;;18.03;12.00;;;;;;;;;;4947294;28;20803;-50
2022/03/30 07:22:11;;;;;;;25.73;12.37;;;;;;;;;;4946789;28;20964;-52
2022/03/30 07:24:37;;;;;;;23.63;12.23;;;;;;;;;;4941224;28;20530;-52
2022/03/30 07:27:03;;;;;;;24.53;12.47;;;;;;;;;;4941765;28;20446;-51
2022/03/30 07:29:29;;;;;;;18.93;11.73;;;;;;;;;;4948585;28;20459;-51
2022/03/30 07:31:56;;;;;;;19.03;11.97;;;;;;;;;;4944395;28;20453;-50
2022/03/30 07:34:22;;;;;;;23.73;13.60;;;;;;;;;;4946279;28;20538;-50
2022/03/30 07:36:48;;;;;;;22.10;11.83;;;;;;;;;;4945779;28;20891;-50
2022/03/30 07:39:14;;;;;;;20.03;12.00;;;;;;;;;;4946659;28;20442;-49
2022/03/30 07:41:40;;;;;;;25.27;12.00;;;;;;;;;;4943802;28;20551;-50
2022/03/30 07:44:06;;;;;;;19.73;12.20;;;;;;;;;;4947177;28;20798;-51
2022/03/30 07:46:33;;;;;;;21.93;11.80;;;;;;;;;;4944858;28;20458;-51
2022/03/30 07:48:59;;;;;;;15.10;12.60;;;;;;;;;;4947861;28;21033;-50
2022/03/30 07:51:25;;;;;;;26.33;11.60;;;;;;;;;;4948973;28;20880;-50
2022/03/30 07:53:51;;;;;;;23.20;12.43;;;;;;;;;;4947829;28;20442;-50
2022/03/30 07:56:17;;;;;;;19.60;12.13;;;;;;;;;;4945275;28;21075;-51
2022/03/30 07:58:43;;;;;;;21.40;11.70;;;;;;;;;;4938415;28;20585;-50
2022/03/30 08:01:11;;;;;;;22.27;11.60;;;;;;;;;;4942766;28;20435;-48
2022/03/30 08:04:12;;;;;;;17.93;10.67;;;;;;;;;;4934940;28;20557;-51
2022/03/30 08:06:53;;;;;;;18.63;11.93;;;;;;;;;;4937090;28;20948;-50
2022/03/30 08:09:22;;;;;;;22.27;10.63;;;;;;;;;;4938479;28;20443;-51
2022/03/30 08:30:22;;;;;;;16.53;9.37;;;;;;;;;;4905650;29;20996;-51
2022/03/30 08:32:48;;;;;;;18.40;10.10;;;;;;;;;;4942793;28;20483;-52
2022/03/30 08:35:15;;;;;;;14.40;9.03;;;;;;;;;;4945104;28;20923;-51
2022/03/30 08:37:41;;;;;;;15.77;8.70;;;;;;;;;;4947771;28;20843;-51
2022/03/30 08:40:07;;;;;;;18.80;10.97;;;;;;;;;;4945819;28;20453;-51
2022/03/30 08:42:34;;;;;;;22.00;9.17;;;;;;;;;;4945484;28;20474;-51
2022/03/30 08:45:01;;;;;;;24.20;10.80;;;;;;;;;;4935855;28;20449;-50
2022/03/30 08:47:27;;;;;;;25.07;11.63;;;;;;;;;;4944730;28;20459;-52
2022/03/30 08:49:54;;;;;;;15.67;9.23;;;;;;;;;;4942571;28;20826;-51
2022/03/30 08:52:20;;;;;;;26.73;11.50;;;;;;;;;;4927214;29;20507;-51
2022/03/30 08:54:46;;;;;;;13.53;8.93;;;;;;;;;;4974958;28;21190;-48
2022/03/30 08:57:13;;;;;;;18.93;9.37;;;;;;;;;;4946894;28;20493;-50
2022/03/30 09:00:09;;;;;;;12.60;9.60;;;;;;;;;;4976702;28;20443;-51
2022/03/30 09:03:01;;;;;;;16.67;9.53;;;;;;;;;;4937409;28;20521;-51
2022/03/30 09:05:37;;;;;;;22.00;9.17;;;;;;;;;;4974870;28;20455;-51
2022/03/30 09:17:17;;;;;;;19.40;9.13;;;;;;;;;;4939971;28;20748;-51
2022/03/30 09:19:44;;;;;;;17.50;9.03;;;;;;;;;;4938322;28;20458;-50
2022/03/30 09:43:39;;;;;;;18.53;9.30;;;;;;;;;;4941767;28;20561;-51
2022/03/30 09:46:11;;;;;;;14.30;9.60;;;;;;;;;;4950439;28;20440;-52
2022/03/30 09:48:54;;;;;;;18.03;9.60;;;;;;;;;;4947954;28;20815;-52
2022/03/30 09:51:21;;;;;;;17.97;9.47;;;;;;;;;;4944392;28;20439;-51
2022/03/30 09:53:47;;;;;;;18.20;11.23;;;;;;;;;;4948517;28;20501;-52
2022/03/30 09:56:17;;;;;;;14.10;9.70;;;;;;;;;;4947343;28;20439;-53
2022/03/30 09:58:43;;;;;;;15.43;8.80;;;;;;;;;;4948062;28;20455;-54
2022/03/30 10:01:14;;;;;;;25.60;13.60;;;;;;;;;;4940269;28;20440;-52
2022/03/30 10:03:53;;;;;;;21.63;9.27;;;;;;;;;;4943943;28;20479;-52
2022/03/30 10:06:20;;;;;;;14.10;9.27;;;;;;;;;;4947254;28;20506;-51
2022/03/30 10:08:46;;;;;;;17.33;9.83;;;;;;;;;;4946607;28;20471;-51
2022/03/30 10:11:15;;;;;;;19.90;8.67;;;;;;;;;;4945541;28;20427;-51
2022/03/30 10:13:42;;;;;;;22.57;9.43;;;;;;;;;;4943151;28;20543;-50
2022/03/30 10:16:08;;;;;;;14.60;9.50;;;;;;;;;;4943287;28;20949;-51
2022/03/30 10:18:35;;;;;;;15.23;9.37;;;;;;;;;;4948458;28;20961;-51
2022/03/30 10:21:19;;;;;;;17.73;9.00;;;;;;;;;;4947237;28;20435;-50
2022/03/30 10:23:48;;;;;;;13.93;8.63;;;;;;;;;;4948586;28;20964;-51
2022/03/30 10:26:32;;;;;;;18.97;9.17;;;;;;;;;;4944040;28;20443;-51
2022/03/30 10:29:02;;;;;;;14.63;10.10;;;;;;;;;;4941636;28;20455;-52
2022/03/30 10:31:30;;;;;;;14.97;9.03;;;;;;;;;;4943745;28;20455;-50
2022/03/30 10:33:56;;;;;;;26.00;8.40;;;;;;;;;;4946333;28;20439;-51
2022/03/30 10:36:22;;;;;;;15.87;10.00;;;;;;;;;;4946834;28;20446;-51
2022/03/30 10:39:07;;;;;;;22.37;9.10;;;;;;;;;;4947252;28;20427;-51
2022/03/30 10:41:52;;;;;;;12.20;8.87;;;;;;;;;;4945367;28;20447;-50
2022/03/30 10:44:37;;;;;;;16.67;10.17;;;;;;;;;;4946745;28;20455;-50
2022/03/30 10:47:22;;;;;;;13.50;8.53;;;;;;;;;;4943907;28;20434;-51
2022/03/30 10:49:52;;;;;;;17.20;8.10;;;;;;;;;;4939295;28;20949;-50
2022/03/30 10:52:38;;;;;;;15.00;8.87;;;;;;;;;;4943420;28;20435;-49
2022/03/30 10:55:13;;;;;;;12.57;8.50;;;;;;;;;;4936586;28;20440;-49
2022/03/30 10:57:49;;;;;;;17.93;10.53;;;;;;;;;;4947170;28;21118;-51
2022/03/30 11:00:18;;;;;;;19.90;7.97;;;;;;;;;;4945913;28;20458;-50
2022/03/30 11:02:44;;;;;;;15.93;9.30;;;;;;;;;;4939286;28;20502;-50
2022/03/30 11:05:10;;;;;;;21.87;12.70;;;;;;;;;;4940299;28;20530;-50
2022/03/30 11:07:37;;;;;;;15.53;9.63;;;;;;;;;;4940779;28;20543;-51
2022/03/30 11:10:21;;;;;;;17.27;9.53;;;;;;;;;;4948400;28;20458;-51
2022/03/30 11:12:57;;;;;;;15.80;8.97;;;;;;;;;;4952970;28;20427;-53
2022/03/30 11:15:23;;;;;;;13.40;9.60;;;;;;;;;;4936322;28;20449;-49
2022/03/30 11:17:49;;;;;;;19.60;10.17;;;;;;;;;;4947695;28;20503;-50
2022/03/30 11:20:16;;;;;;;14.00;10.00;;;;;;;;;;4946044;28;20446;-50
2022/03/30 11:22:44;;;;;;;13.27;9.20;;;;;;;;;;4945271;28;20868;-51
2022/03/30 11:25:13;;;;;;;14.70;9.37;;;;;;;;;;4943172;28;20431;-52
2022/03/30 11:27:39;;;;;;;15.57;9.37;;;;;;;;;;4947697;28;20450;-51
2022/03/30 11:30:25;;;;;;;17.20;9.50;;;;;;;;;;4945631;28;20590;-51
2022/03/30 11:32:51;;;;;;;19.10;9.10;;;;;;;;;;4937206;28;20439;-52
2022/03/30 11:35:18;;;;;;;20.17;9.57;;;;;;;;;;4946211;28;20984;-51
2022/03/30 11:37:45;;;;;;;20.83;9.80;;;;;;;;;;4949307;28;20534;-50
2022/03/30 11:40:14;;;;;;;18.17;10.60;;;;;;;;;;4948884;28;20961;-51
2022/03/30 11:42:42;;;;;;;19.27;10.40;;;;;;;;;;4943989;28;20467;-51
2022/03/30 11:45:13;;;;;;;21.00;11.20;;;;;;;;;;4943819;28;20467;-52
2022/03/30 11:47:43;;;;;;;17.67;12.23;;;;;;;;;;4945065;28;21006;-51
2022/03/30 11:50:09;;;;;;;21.57;10.77;;;;;;;;;;4949727;28;20888;-51
2022/03/30 11:52:38;;;;;;;16.53;9.47;;;;;;;;;;4940978;28;20458;-51
2022/03/30 11:55:07;;;;;;;16.07;10.40;;;;;;;;;;4939007;28;20537;-50
2022/03/30 11:57:37;;;;;;;11.50;10.00;;;;;;;;;;4938596;28;20490;-50
2022/03/30 12:00:09;;;;;;;17.20;10.60;;;;;;;;;;4943982;28;20440;-51
2022/03/30 12:02:42;;;;;;;18.97;13.93;;;;;;;;;;4941688;28;20478;-51
2022/03/30 12:05:23;;;;;;;16.17;11.33;;;;;;;;;;4946061;28;20440;-51
2022/03/30 12:07:53;;;;;;;18.97;11.13;;;;;;;;;;4941654;28;20589;-50
2022/03/30 12:10:19;;;;;;;20.13;11.37;;;;;;;;;;4945543;28;20450;-49
2022/03/30 12:12:45;;;;;;;18.17;11.73;;;;;;;;;;4943332;28;20952;-49
2022/03/30 12:15:12;;;;;;;20.60;12.10;;;;;;;;;;4938837;28;20180;-52
2022/03/30 12:17:39;;;;;;;18.67;11.33;;;;;;;;;;4955336;28;20454;-52
2022/03/30 12:20:17;;;;;;;14.93;11.30;;;;;;;;;;4947988;28;20953;-51
2022/03/30 12:22:49;;;;;;;20.90;11.60;;;;;;;;;;4940098;28;20508;-51
2022/03/30 12:25:16;;;;;;;16.63;10.57;;;;;;;;;;4938217;28;20538;-51
2022/03/30 12:27:42;;;;;;;11.63;9.73;;;;;;;;;;4944104;28;20479;-51
2022/03/30 12:30:10;;;;;;;20.30;10.73;;;;;;;;;;4939182;28;20854;-52
2022/03/30 12:32:37;;;;;;;12.77;7.50;;;;;;;;;;4936794;28;20534;-51
2022/03/30 12:35:09;;;;;;;9.90;6.87;;;;;;;;;;4944323;28;20533;-49
2022/03/30 12:37:35;;;;;;;9.20;6.87;;;;;;;;;;4945990;28;20526;-51
2022/03/30 12:40:09;;;;;;;7.67;6.50;;;;;;;;;;4945881;28;20463;-51
2022/03/30 12:42:35;;;;;;;7.00;6.30;;;;;;;;;;4940986;28;20978;-49
2022/03/30 12:45:05;;;;;;;11.03;7.87;;;;;;;;;;4942493;28;20503;-51
2022/03/30 12:47:48;;;;;;;10.17;8.33;;;;;;;;;;4938267;28;20716;-51
2022/03/30 12:50:19;;;;;;;8.23;6.60;;;;;;;;;;4940496;28;20427;-51
2022/03/30 12:52:49;;;;;;;8.40;7.33;;;;;;;;;;4942033;28;20447;-52
2022/03/30 12:55:17;;;;;;;8.33;7.27;;;;;;;;;;4938805;28;20447;-51
2022/03/30 12:57:53;;;;;;;8.03;6.70;;;;;;;;;;4940205;28;20435;-50
2022/03/30 13:00:20;;;;;;;9.17;6.77;;;;;;;;;;4942890;28;20443;-52
2022/03/30 13:02:47;;;;;;;8.10;6.93;;;;;;;;;;4940510;28;21093;-52
2022/03/30 13:05:23;;;;;;;7.40;6.60;;;;;;;;;;4937849;28;20454;-55
2022/03/30 13:07:51;;;;;;;7.40;6.30;;;;;;;;;;4943876;28;20445;-50
2022/03/30 13:10:18;;;;;;;6.23;5.63;;;;;;;;;;4944067;28;20433;-50
2022/03/30 13:12:51;;;;;;;8.87;6.83;;;;;;;;;;4930780;28;20891;-52
2022/03/30 13:15:18;;;;;;;11.83;6.93;;;;;;;;;;4936801;28;20458;-51
2022/03/30 13:18:04;;;;;;;8.50;6.67;;;;;;;;;;4948410;28;20431;-51
2022/03/30 13:20:33;;;;;;;8.30;6.20;;;;;;;;;;4946893;28;20451;-51
2022/03/30 13:23:00;;;;;;;6.53;5.00;;;;;;;;;;4944272;28;20719;-51
2022/03/30 13:25:32;;;;;;;6.73;6.03;;;;;;;;;;4941074;28;20485;-53
2022/03/30 13:27:58;;;;;;;8.23;6.20;;;;;;;;;;4942595;28;20439;-50
2022/03/30 13:30:26;;;;;;;6.50;5.80;;;;;;;;;;4971350;28;20442;-51
2022/03/30 13:32:52;;;;;;;6.90;5.63;;;;;;;;;;4938915;28;20447;-48
2022/03/30 13:35:28;;;;;;;8.00;6.53;;;;;;;;;;4937922;28;20535;-51
2022/03/30 13:37:54;;;;;;;6.53;5.80;;;;;;;;;;4979561;28;20522;-52
2022/03/30 13:40:26;;;;;;;7.47;6.10;;;;;;;;;;4941211;28;20462;-51
2022/03/30 13:42:53;;;;;;;8.70;6.37;;;;;;;;;;4941478;28;20479;-52
2022/03/30 13:45:19;;;;;;;7.23;6.33;;;;;;;;;;4946283;28;20958;-50
2022/03/30 13:47:49;;;;;;;12.10;7.47;;;;;;;;;;4945968;28;20443;-50
2022/03/30 13:50:18;;;;;;;8.33;7.13;;;;;;;;;;4929455;29;20473;-51
2022/03/30 13:52:56;;;;;;;9.70;8.50;;;;;;;;;;4949148;28;20451;-51
2022/03/30 13:55:23;;;;;;;9.10;7.37;;;;;;;;;;4953869;28;20442;-50
2022/03/30 13:58:14;;;;;;;10.13;7.00;;;;;;;;;;4945570;28;20450;-51
2022/03/30 14:00:46;;;;;;;8.27;7.10;;;;;;;;;;4961223;28;20457;-52
2022/03/30 14:03:12;;;;;;;8.70;6.63;;;;;;;;;;4943492;28;20486;-51
2022/03/30 14:05:41;;;;;;;6.60;5.43;;;;;;;;;;4949615;28;20541;-52
2022/03/30 14:08:08;;;;;;;7.90;6.23;;;;;;;;;;4944895;28;20451;-50
2022/03/30 14:10:45;;;;;;;;;;;;;;;;;;;;;
2022/03/30 14:13:12;;;;;;;7.97;6.30;;;;;;;;;;4950784;28;20443;-49
2022/03/30 14:15:38;;;;;;;6.33;5.60;;;;;;;;;;4945784;28;20817;-51
2022/03/30 14:18:04;;;;;;;8.15;6.10;;;;;;;;;;4938746;28;20921;-49
2022/03/30 14:20:30;;;;;;;7.83;6.07;;;;;;;;;;4950471;28;20184;-51
2022/03/30 14:22:57;;;;;;;6.60;5.43;;;;;;;;;;4945713;28;20515;-51
2022/03/30 14:25:24;;;;;;;12.60;6.50;;;;;;;;;;4948846;28;20431;-51
2022/03/30 14:27:53;;;;;;;7.73;6.27;;;;;;;;;;4947566;28;20443;-50
2022/03/30 14:30:19;;;;;;;9.67;6.60;;;;;;;;;;4949766;28;20439;-50
2022/03/30 14:32:53;;;;;;;9.90;6.00;;;;;;;;;;4947130;28;20463;-51
2022/03/30 14:35:19;;;;;;;13.20;6.37;;;;;;;;;;4930039;28;20441;-51
2022/03/30 14:37:46;;;;;;;8.30;7.40;;;;;;;;;;4949461;28;20486;-51
2022/03/30 14:40:13;;;;;;;10.53;7.60;;;;;;;;;;4949101;28;20491;-52
2022/03/30 14:42:40;;;;;;;8.67;6.50;;;;;;;;;;4928770;28;20483;-49
2022/03/30 14:45:07;;;;;;;9.33;6.90;;;;;;;;;;4945285;28;20956;-50
2022/03/30 14:47:42;;;;;;;8.97;6.20;;;;;;;;;;4942928;28;20435;-50
2022/03/30 14:50:16;;;;;;;11.57;7.67;;;;;;;;;;4940369;28;20438;-52
2022/03/30 14:52:42;;;;;;;13.10;9.03;;;;;;;;;;4942882;28;20424;-50
2022/03/30 14:55:10;;;;;;;13.10;7.67;;;;;;;;;;4945464;28;21095;-51
2022/03/30 14:57:37;;;;;;;12.93;7.50;;;;;;;;;;4943095;28;20450;-49
2022/03/30 15:00:06;;;;;;;12.20;9.50;;;;;;;;;;4943851;28;20447;-52
2022/03/30 15:02:32;;;;;;;9.97;8.20;;;;;;;;;;4936793;28;20474;-50
2022/03/30 15:04:58;;;;;;;9.90;7.83;;;;;;;;;;4942787;28;20447;-51
2022/03/30 15:07:26;;;;;;;13.60;9.57;;;;;;;;;;4939991;28;20451;-55
2022/03/30 15:09:52;;;;;;;13.53;8.80;;;;;;;;;;4951298;28;20443;-51
2022/03/30 15:12:19;;;;;;;12.27;8.37;;;;;;;;;;4935462;28;20928;-51
2022/03/30 15:14:45;;;;;;;20.27;11.90;;;;;;;;;;4939931;28;21241;-48
2022/03/30 15:17:11;;;;;;;15.67;9.67;;;;;;;;;;4942989;28;20469;-50
2022/03/30 15:19:37;;;;;;;18.37;11.43;;;;;;;;;;4941255;28;20439;-50
2022/03/30 15:22:05;;;;;;;14.33;9.93;;;;;;;;;;4945177;28;20531;-49
2022/03/30 15:24:35;;;;;;;15.40;10.90;;;;;;;;;;4947462;29;20455;-49
2022/03/30 15:27:11;;;;;;;17.00;10.73;;;;;;;;;;4946197;28;20463;-51
2022/03/30 15:29:42;;;;;;;17.90;11.63;;;;;;;;;;4942908;28;20446;-51
2022/03/30 15:32:09;;;;;;;18.77;9.57;;;;;;;;;;4933320;28;20427;-51